createdAt,value
2022-07-29T00:00:25.608Z,445
2022-07-29T00:02:09.328Z,446.3
2022-07-29T00:03:53.010Z,450.4
2022-07-29T00:05:36.703Z,452.1
2022-07-29T00:07:20.419Z,452.9
2022-07-29T00:09:04.112Z,452
2022-07-29T00:10:47.818Z,451.1
2022-07-29T00:12:31.507Z,451.5
2022-07-29T00:14:15.218Z,451.7
2022-07-29T00:15:58.936Z,450.3
2022-07-29T00:17:42.625Z,450.9
2022-07-29T00:19:26.310Z,452.7
2022-07-29T00:21:10.032Z,454.6
2022-07-29T00:22:53.736Z,453.1
2022-07-29T00:24:37.451Z,452.4
2022-07-29T00:26:21.122Z,453.1
2022-07-29T00:28:04.836Z,453.9
2022-07-29T00:29:48.547Z,452.4
2022-07-29T00:31:32.259Z,451.7
2022-07-29T00:33:15.932Z,452.3
2022-07-29T00:34:59.654Z,450.9
2022-07-29T00:36:43.361Z,448
2022-07-29T00:38:27.059Z,450.7
2022-07-29T00:40:10.761Z,450.3
2022-07-29T00:41:54.456Z,447.4
2022-07-29T00:43:38.164Z,446.4
2022-07-29T00:45:21.863Z,444.4
2022-07-29T00:47:05.594Z,443.6
2022-07-29T00:48:49.296Z,441.5
2022-07-29T00:50:32.978Z,440.1
2022-07-29T00:52:16.666Z,439.7
2022-07-29T00:54:00.391Z,442.5
2022-07-29T00:55:44.076Z,443.5
2022-07-29T00:57:27.761Z,442.9
2022-07-29T00:59:11.477Z,437.9
2022-07-29T01:00:55.189Z,436.4
2022-07-29T01:02:38.878Z,437.1
2022-07-29T01:04:22.573Z,437.6
2022-07-29T01:06:06.279Z,437.2
2022-07-29T01:07:49.983Z,439.1
2022-07-29T01:09:33.696Z,439.9
2022-07-29T01:11:17.368Z,440.2
2022-07-29T01:13:01.083Z,440.3
2022-07-29T01:14:44.790Z,441.6
2022-07-29T01:16:28.505Z,443.5
2022-07-29T01:18:12.188Z,445
2022-07-29T01:19:55.915Z,447.1
2022-07-29T01:21:39.598Z,447.1
2022-07-29T01:23:23.295Z,445.7
2022-07-29T01:25:06.983Z,445.5
2022-07-29T01:26:50.713Z,448.8
2022-07-29T01:28:34.399Z,448.4
2022-07-29T01:30:18.094Z,447.9
2022-07-29T01:32:01.805Z,445.2
2022-07-29T01:33:45.504Z,442.4
2022-07-29T01:35:29.205Z,441.3
2022-07-29T01:37:12.920Z,441.8
2022-07-29T01:38:56.591Z,440.4
2022-07-29T01:40:40.320Z,441.3
2022-07-29T01:42:24.016Z,441
2022-07-29T01:44:07.729Z,441.8
2022-07-29T01:45:51.427Z,443.4
2022-07-29T01:47:35.122Z,444
2022-07-29T01:49:18.833Z,442.8
2022-07-29T01:51:02.523Z,445.7
2022-07-29T01:52:46.226Z,446.4
2022-07-29T01:54:29.944Z,445.5
2022-07-29T01:56:13.664Z,444.4
2022-07-29T01:57:57.344Z,446.9
2022-07-29T01:59:41.073Z,446.1
2022-07-29T02:01:24.736Z,447.6
2022-07-29T02:03:08.432Z,445.8
2022-07-29T02:04:52.154Z,447.9
2022-07-29T02:06:35.878Z,448.3
2022-07-29T02:08:19.540Z,445.6
2022-07-29T02:10:03.242Z,444
2022-07-29T02:11:46.945Z,445.9
2022-07-29T02:13:30.639Z,445.8
2022-07-29T02:15:14.349Z,445.6
2022-07-29T02:16:58.042Z,447
2022-07-29T02:18:41.772Z,448.7
2022-07-29T02:20:25.472Z,449.7
2022-07-29T02:22:09.167Z,450
2022-07-29T02:23:52.867Z,448.3
2022-07-29T02:25:36.580Z,447.3
2022-07-29T02:27:20.258Z,449.7
2022-07-29T02:29:03.965Z,450.6
2022-07-29T02:30:47.683Z,448.2
2022-07-29T02:32:31.394Z,446.6
2022-07-29T02:34:15.079Z,446.1
2022-07-29T02:35:58.803Z,445.1
2022-07-29T02:37:42.486Z,444
2022-07-29T02:39:26.195Z,443.7
2022-07-29T02:41:09.894Z,442.8
2022-07-29T02:42:53.604Z,442.5
2022-07-29T02:44:37.299Z,444.1
2022-07-29T02:46:21.001Z,444.7
2022-07-29T02:48:04.722Z,442.7
2022-07-29T02:49:48.413Z,443
2022-07-29T02:51:32.115Z,443.9
2022-07-29T02:53:15.815Z,443.6
2022-07-29T02:54:59.525Z,441.9
2022-07-29T02:56:43.204Z,439
2022-07-29T02:58:26.933Z,441.3
2022-07-29T03:00:10.635Z,444.3
2022-07-29T03:01:54.323Z,443.8
2022-07-29T03:03:38.014Z,442.4
2022-07-29T03:05:21.736Z,442.4
2022-07-29T03:07:05.425Z,441.8
2022-07-29T03:08:49.124Z,442
2022-07-29T03:10:32.834Z,441.3
2022-07-29T03:12:16.536Z,442.4
2022-07-29T03:14:00.230Z,442.3
2022-07-29T03:15:43.927Z,443
2022-07-29T03:17:27.637Z,440.1
2022-07-29T03:19:11.345Z,439.2
2022-07-29T03:20:55.042Z,438.3
2022-07-29T03:22:38.742Z,438.9
2022-07-29T03:24:22.453Z,441
2022-07-29T03:26:06.164Z,442.2
2022-07-29T03:27:49.854Z,441.9
2022-07-29T03:29:33.552Z,441.8
2022-07-29T03:31:17.263Z,441.6
2022-07-29T03:33:00.947Z,443.8
2022-07-29T03:34:44.659Z,443.3
2022-07-29T03:36:28.371Z,443.5
2022-07-29T03:38:12.073Z,442
2022-07-29T03:39:55.771Z,439.4
2022-07-29T03:41:39.476Z,439.4
2022-07-29T03:43:23.188Z,438
2022-07-29T03:45:06.874Z,440.3
2022-07-29T03:46:50.618Z,440.8
2022-07-29T03:48:34.286Z,441.2
2022-07-29T03:50:17.996Z,441.7
2022-07-29T03:52:01.696Z,443.4
2022-07-29T03:53:45.396Z,442.5
2022-07-29T03:55:29.118Z,442.1
2022-07-29T03:57:12.815Z,441.1
2022-07-29T03:58:56.512Z,441.7
2022-07-29T04:00:40.231Z,443.2
2022-07-29T04:02:23.929Z,439.9
2022-07-29T04:04:07.623Z,439.1
2022-07-29T04:05:51.333Z,440.4
2022-07-29T04:07:35.032Z,439.7
2022-07-29T04:09:18.731Z,440.4
2022-07-29T04:11:02.432Z,440.3
2022-07-29T04:12:46.139Z,440.7
2022-07-29T04:14:29.844Z,438.8
2022-07-29T04:16:13.533Z,436.6
2022-07-29T04:17:57.251Z,436.9
2022-07-29T04:19:40.951Z,437.2
2022-07-29T04:21:24.656Z,438.1
2022-07-29T04:23:08.374Z,440
2022-07-29T04:24:52.049Z,441.1
2022-07-29T04:26:35.752Z,441.3
2022-07-29T04:28:19.446Z,442.1
2022-07-29T04:30:03.149Z,439.7
2022-07-29T04:31:46.856Z,439.9
2022-07-29T04:33:30.555Z,440.7
2022-07-29T04:35:14.272Z,439.7
2022-07-29T04:36:57.953Z,441.4
2022-07-29T04:38:41.657Z,440.4
2022-07-29T04:40:25.371Z,441.7
2022-07-29T04:42:09.071Z,444.1
2022-07-29T04:43:52.755Z,443.9
2022-07-29T04:45:36.501Z,442
2022-07-29T04:47:20.165Z,444.9
2022-07-29T04:49:03.879Z,445.3
2022-07-29T04:50:47.568Z,443.9
2022-07-29T04:52:31.267Z,443.8
2022-07-29T04:54:14.973Z,446.8
2022-07-29T04:55:58.683Z,449.3
2022-07-29T04:57:42.384Z,449.6
2022-07-29T04:59:26.088Z,454
2022-07-29T05:01:09.789Z,453.6
2022-07-29T05:02:53.478Z,450.2
2022-07-29T05:04:37.201Z,446.4
2022-07-29T05:06:20.903Z,447
2022-07-29T05:08:04.619Z,448.4
2022-07-29T05:09:48.285Z,448.3
2022-07-29T05:11:32.000Z,448
2022-07-29T05:13:15.701Z,447.8
2022-07-29T05:14:59.417Z,446
2022-07-29T05:16:43.090Z,445.7
2022-07-29T05:18:26.818Z,444
2022-07-29T05:20:10.515Z,443.4
2022-07-29T05:21:54.215Z,443.5
2022-07-29T05:23:37.913Z,444.2
2022-07-29T05:25:21.618Z,447.9
2022-07-29T05:27:05.391Z,447.3
2022-07-29T05:28:49.021Z,446
2022-07-29T05:30:32.725Z,447.3
2022-07-29T05:32:16.419Z,448.3
2022-07-29T05:34:00.131Z,449.2
2022-07-29T05:35:43.842Z,450.6
2022-07-29T05:37:27.518Z,453.2
2022-07-29T05:39:11.761Z,451.4
2022-07-29T05:40:54.928Z,449.3
2022-07-29T05:42:38.640Z,449.3
2022-07-29T05:44:22.331Z,446.2
2022-07-29T05:46:06.079Z,445.4
2022-07-29T05:47:49.747Z,445.8
2022-07-29T05:49:33.426Z,445.6
2022-07-29T05:51:17.155Z,446.6
2022-07-29T05:53:00.854Z,448
2022-07-29T05:54:44.540Z,450
2022-07-29T05:56:28.237Z,451.3
2022-07-29T05:58:11.953Z,450.5
2022-07-29T05:59:55.670Z,451
2022-07-29T06:01:39.349Z,451.2
2022-07-29T06:03:23.056Z,449.7
2022-07-29T06:05:06.758Z,448.4
2022-07-29T06:06:50.466Z,448.4
2022-07-29T06:08:34.165Z,450.2
2022-07-29T06:10:17.860Z,450
2022-07-29T06:12:01.551Z,452.4
2022-07-29T06:13:45.248Z,453.8
2022-07-29T06:15:28.976Z,450.1
2022-07-29T06:17:12.651Z,450
2022-07-29T06:18:56.363Z,452.4
2022-07-29T06:20:40.072Z,450.3
2022-07-29T06:22:23.773Z,448.9
2022-07-29T06:24:07.480Z,451
2022-07-29T06:25:51.167Z,450.2
2022-07-29T06:27:34.869Z,449.3
2022-07-29T06:29:18.586Z,447.2
2022-07-29T06:31:02.271Z,446.3
2022-07-29T06:32:45.976Z,445.5
2022-07-29T06:34:29.693Z,443
2022-07-29T06:36:13.403Z,445.8
2022-07-29T06:37:57.071Z,446.1
2022-07-29T06:39:40.801Z,445.7
2022-07-29T06:41:24.486Z,445.2
2022-07-29T06:43:08.187Z,438.2
2022-07-29T06:44:51.907Z,439.3
2022-07-29T06:46:35.606Z,444.4
2022-07-29T06:48:19.300Z,445.8
2022-07-29T06:50:03.043Z,445.4
2022-07-29T06:51:46.686Z,445.6
2022-07-29T06:53:30.409Z,445.8
2022-07-29T06:55:14.118Z,447.6
2022-07-29T06:56:57.789Z,448.1
2022-07-29T06:58:41.495Z,449.2
2022-07-29T07:00:25.206Z,452.3
2022-07-29T07:02:08.922Z,454.4
2022-07-29T07:03:52.597Z,455.1
2022-07-29T07:05:36.315Z,454.3
2022-07-29T07:07:20.020Z,452.7
2022-07-29T07:09:03.712Z,453.2
2022-07-29T07:10:47.426Z,453.2
2022-07-29T07:12:31.131Z,453.5
2022-07-29T07:14:14.836Z,456.2
2022-07-29T07:15:58.513Z,457.9
2022-07-29T07:17:42.239Z,457.7
2022-07-29T07:19:25.933Z,457.1
2022-07-29T07:21:09.647Z,456.1
2022-07-29T07:22:53.341Z,455
2022-07-29T07:24:37.044Z,452.4
2022-07-29T07:26:20.747Z,452.9
2022-07-29T07:28:04.462Z,450.7
2022-07-29T07:29:48.146Z,449.4
2022-07-29T07:31:31.841Z,445.8
2022-07-29T07:33:15.564Z,445.6
2022-07-29T07:34:59.281Z,444.3
2022-07-29T07:36:42.949Z,441.1
2022-07-29T07:38:26.686Z,441.3
2022-07-29T07:40:10.376Z,442.8
2022-07-29T07:41:54.062Z,443
2022-07-29T07:43:37.776Z,442.5
2022-07-29T07:45:21.505Z,442.5
2022-07-29T07:47:05.184Z,441.3
2022-07-29T07:48:48.891Z,440.9
2022-07-29T07:50:32.598Z,438.2
2022-07-29T07:52:16.310Z,437.7
2022-07-29T07:53:59.995Z,437.9
2022-07-29T07:55:43.715Z,438.1
2022-07-29T07:57:27.395Z,437.7
2022-07-29T07:59:11.101Z,437
2022-07-29T08:00:54.847Z,434.9
2022-07-29T08:02:38.483Z,431
2022-07-29T08:04:22.203Z,430.5
2022-07-29T08:06:05.901Z,428
2022-07-29T08:07:49.606Z,425.2
2022-07-29T08:09:33.291Z,424
2022-07-29T08:11:16.997Z,424.4
2022-07-29T08:13:00.734Z,425.3
2022-07-29T08:14:44.426Z,424
2022-07-29T08:16:28.119Z,426.1
2022-07-29T08:18:11.828Z,432.3
2022-07-29T08:19:55.523Z,437.1
2022-07-29T08:21:39.233Z,442.6
2022-07-29T08:23:22.932Z,444.3
2022-07-29T08:25:06.648Z,447.4
2022-07-29T08:26:50.342Z,450.3
2022-07-29T08:28:34.033Z,451
2022-07-29T08:30:17.759Z,453
2022-07-29T08:32:01.462Z,455.2
2022-07-29T08:33:45.161Z,456.4
2022-07-29T08:35:28.851Z,456.4
2022-07-29T08:37:12.553Z,459.8
2022-07-29T08:38:56.258Z,461.8
2022-07-29T08:40:39.975Z,458.8
2022-07-29T08:42:23.673Z,458.2
2022-07-29T08:44:07.401Z,456.5
2022-07-29T08:45:51.080Z,455.3
2022-07-29T08:47:34.780Z,454.1
2022-07-29T08:49:18.484Z,452.7
2022-07-29T08:51:02.190Z,449.7
2022-07-29T08:52:45.895Z,448
2022-07-29T08:54:29.591Z,450.2
2022-07-29T08:56:13.294Z,448.8
2022-07-29T08:57:56.997Z,444.2
2022-07-29T08:59:40.702Z,441.5
2022-07-29T09:01:24.402Z,443.6
2022-07-29T09:03:08.101Z,447.2
2022-07-29T09:04:51.820Z,449.7
2022-07-29T09:06:35.510Z,452.7
2022-07-29T09:08:19.198Z,456.8
2022-07-29T09:10:02.909Z,460.8
2022-07-29T09:11:46.625Z,464.8
2022-07-29T09:13:30.315Z,467.3
2022-07-29T09:15:14.030Z,473.1
2022-07-29T09:16:57.731Z,474.6
2022-07-29T09:18:41.449Z,475.2
2022-07-29T09:20:25.133Z,474.9
2022-07-29T09:22:08.829Z,473.8
2022-07-29T09:23:52.552Z,468.8
2022-07-29T09:25:36.262Z,467.4
2022-07-29T09:27:19.938Z,469.3
2022-07-29T09:29:03.635Z,468.8
2022-07-29T09:30:47.349Z,468.8
2022-07-29T09:32:31.076Z,466
2022-07-29T09:34:14.753Z,459.9
2022-07-29T09:35:58.476Z,457.1
2022-07-29T09:37:42.170Z,454.4
2022-07-29T09:39:25.867Z,452.5
2022-07-29T09:41:09.570Z,454.3
2022-07-29T09:42:53.271Z,454.8
2022-07-29T09:44:36.978Z,455.5
2022-07-29T09:46:20.680Z,455.3
2022-07-29T09:48:04.383Z,459.1
2022-07-29T09:49:48.085Z,464.5
2022-07-29T09:51:31.785Z,461.9
2022-07-29T09:53:15.475Z,459.8
2022-07-29T09:54:59.174Z,465.4
2022-07-29T09:56:42.887Z,469.1
2022-07-29T09:58:26.599Z,471.6
2022-07-29T10:00:10.324Z,471.4
2022-07-29T10:01:54.004Z,467.2
2022-07-29T10:03:37.709Z,465.8
2022-07-29T10:05:21.415Z,467.3
2022-07-29T10:07:05.110Z,468.1
2022-07-29T10:08:48.846Z,472.1
2022-07-29T10:10:32.527Z,471.6
2022-07-29T10:12:16.218Z,471.7
2022-07-29T10:13:59.921Z,469.5
2022-07-29T10:15:43.631Z,470.2
2022-07-29T10:17:27.339Z,469.8
2022-07-29T10:19:11.018Z,470.6
2022-07-29T10:20:54.739Z,467.5
2022-07-29T10:22:38.439Z,466.1
2022-07-29T10:24:22.139Z,468.3
2022-07-29T10:26:05.857Z,471.3
2022-07-29T10:27:49.540Z,469.8
2022-07-29T10:29:33.236Z,466.4
2022-07-29T10:31:16.958Z,466.4
2022-07-29T10:33:00.657Z,462.2
2022-07-29T10:34:44.367Z,457.4
2022-07-29T10:36:28.083Z,457.4
2022-07-29T10:38:11.755Z,458.3
2022-07-29T10:39:55.453Z,459.2
2022-07-29T10:41:39.173Z,459.5
2022-07-29T10:43:22.873Z,458.4
2022-07-29T10:45:06.564Z,456.1
2022-07-29T10:46:50.269Z,453.5
2022-07-29T10:48:33.982Z,454
2022-07-29T10:50:17.675Z,452.5
2022-07-29T10:52:01.400Z,453.6
2022-07-29T10:53:45.094Z,453.7
2022-07-29T10:55:28.766Z,454.7
2022-07-29T10:57:12.499Z,451.5
2022-07-29T10:58:56.187Z,452.6
2022-07-29T11:00:39.904Z,451.2
2022-07-29T11:02:23.637Z,448.9
2022-07-29T11:04:07.323Z,443.9
2022-07-29T11:05:50.992Z,442.3
2022-07-29T11:07:34.720Z,442.2
2022-07-29T11:09:18.440Z,439.2
2022-07-29T11:11:02.099Z,441.5
2022-07-29T11:12:45.805Z,445.5
2022-07-29T11:14:29.514Z,449.7
2022-07-29T11:16:13.225Z,451.3
2022-07-29T11:17:56.944Z,454.6
2022-07-29T11:19:40.662Z,458.2
2022-07-29T11:21:24.350Z,460.5
2022-07-29T11:23:08.051Z,460.5
2022-07-29T11:24:51.727Z,459.7
2022-07-29T11:26:35.431Z,456.5
2022-07-29T11:28:19.173Z,457.4
2022-07-29T11:30:02.826Z,454.5
2022-07-29T11:31:46.558Z,451.4
2022-07-29T11:33:30.266Z,452.9
2022-07-29T11:35:13.943Z,453.6
2022-07-29T11:36:57.641Z,452.9
2022-07-29T11:38:41.340Z,450.4
2022-07-29T11:40:25.077Z,448
2022-07-29T11:42:08.797Z,448.2
2022-07-29T11:43:52.458Z,451.4
2022-07-29T11:45:36.156Z,450.3
2022-07-29T11:47:19.849Z,449.8
2022-07-29T11:49:03.589Z,446.9
2022-07-29T11:50:47.241Z,447
2022-07-29T11:52:30.962Z,451
2022-07-29T11:54:14.676Z,454.4
2022-07-29T11:55:58.374Z,456.7
2022-07-29T11:57:42.039Z,460.7
2022-07-29T11:59:25.762Z,458.7
2022-07-29T12:01:09.456Z,455.5
2022-07-29T12:02:53.155Z,454.8
2022-07-29T12:04:36.854Z,453.8
2022-07-29T12:06:20.916Z,452.5
2022-07-29T12:08:04.304Z,453.1
2022-07-29T12:09:47.953Z,444.8
2022-07-29T12:11:31.691Z,435.6
2022-07-29T12:13:15.401Z,432.1
2022-07-29T12:14:59.090Z,430.4
2022-07-29T12:16:42.754Z,426.9
2022-07-29T12:18:26.494Z,424.3
2022-07-29T12:20:10.190Z,421.5
2022-07-29T12:21:53.865Z,416.5
2022-07-29T12:23:37.575Z,415.9
2022-07-29T12:25:21.261Z,417.6
2022-07-29T12:27:04.952Z,417.3
2022-07-29T12:28:48.688Z,413
2022-07-29T12:30:32.447Z,414.9
2022-07-29T12:32:16.104Z,412.3
2022-07-29T12:33:59.779Z,408.8
2022-07-29T12:35:43.475Z,407.4
2022-07-29T12:37:27.163Z,407.5
2022-07-29T12:39:10.882Z,408.2
2022-07-29T12:40:54.590Z,407.8
2022-07-29T12:42:38.262Z,406.4
2022-07-29T12:44:21.979Z,406.2
2022-07-29T12:46:05.684Z,405.8
2022-07-29T12:47:49.388Z,405.8
2022-07-29T12:49:33.072Z,405
2022-07-29T12:51:16.783Z,402.1
2022-07-29T12:53:00.520Z,402.8
2022-07-29T12:54:44.188Z,404.5
2022-07-29T12:56:27.910Z,404.5
2022-07-29T12:58:11.583Z,406.1
2022-07-29T12:59:55.311Z,405.2
2022-07-29T13:01:39.045Z,406.2
2022-07-29T13:03:22.698Z,407.5
2022-07-29T13:05:06.410Z,407.9
2022-07-29T13:06:50.095Z,409.6
2022-07-29T13:08:33.805Z,410
2022-07-29T13:10:17.506Z,410.2
2022-07-29T13:12:01.209Z,413
2022-07-29T13:13:44.928Z,416.3
2022-07-29T13:15:28.612Z,413.9
2022-07-29T13:17:12.328Z,407.3
2022-07-29T13:18:56.004Z,402.2
2022-07-29T13:20:39.716Z,400.9
2022-07-29T13:22:23.429Z,400.3
2022-07-29T13:24:07.103Z,398.5
2022-07-29T13:25:50.830Z,399.6
2022-07-29T13:27:34.513Z,398.2
2022-07-29T13:29:18.219Z,397.7
2022-07-29T13:31:01.917Z,395.3
2022-07-29T13:32:45.619Z,391.9
2022-07-29T13:34:29.304Z,387.8
2022-07-29T13:36:13.010Z,388.9
2022-07-29T13:37:56.698Z,391.5
2022-07-29T13:39:40.401Z,390.9
2022-07-29T13:41:24.093Z,391.6
2022-07-29T13:43:07.838Z,390.2
2022-07-29T13:44:51.494Z,387.4
2022-07-29T13:46:35.228Z,386.6
2022-07-29T13:48:18.968Z,388.1
2022-07-29T13:50:02.627Z,390.6
2022-07-29T13:51:46.315Z,394
2022-07-29T13:53:30.016Z,393.7
2022-07-29T13:55:13.710Z,394.8
2022-07-29T13:56:57.421Z,396.1
2022-07-29T13:58:41.111Z,394.8
2022-07-29T14:00:24.800Z,395.3
2022-07-29T14:02:08.513Z,394.7
2022-07-29T14:03:52.225Z,397.7
2022-07-29T14:05:35.943Z,399.2
2022-07-29T14:07:19.635Z,399.5
2022-07-29T14:09:03.326Z,396
2022-07-29T14:10:47.048Z,393.7
2022-07-29T14:12:30.749Z,395.6
2022-07-29T14:14:14.433Z,397.6
2022-07-29T14:15:58.125Z,397.6
2022-07-29T14:17:41.850Z,394.9
2022-07-29T14:19:25.549Z,395.8
2022-07-29T14:21:09.240Z,394.5
2022-07-29T14:22:52.935Z,388.1
2022-07-29T14:24:36.656Z,385.8
2022-07-29T14:26:20.354Z,386.5
2022-07-29T14:28:04.082Z,388.9
2022-07-29T14:29:47.770Z,390.6
2022-07-29T14:31:31.460Z,390.9
2022-07-29T14:33:15.155Z,390.1
2022-07-29T14:34:58.844Z,392.3
2022-07-29T14:36:42.801Z,395
2022-07-29T14:38:26.274Z,398.3
2022-07-29T14:40:09.947Z,401
2022-07-29T14:41:53.687Z,398.9
2022-07-29T14:43:37.360Z,400
2022-07-29T14:45:21.057Z,402
2022-07-29T14:47:04.748Z,400
2022-07-29T14:48:48.459Z,400.7
2022-07-29T14:50:32.160Z,400.2
2022-07-29T14:52:15.880Z,403.3
2022-07-29T14:53:59.546Z,402
2022-07-29T14:55:43.268Z,403.8
2022-07-29T14:57:26.963Z,400.8
2022-07-29T14:59:10.669Z,402.8
2022-07-29T15:00:54.363Z,406.4
2022-07-29T15:02:38.058Z,402.9
2022-07-29T15:04:21.765Z,399.8
2022-07-29T15:06:05.485Z,396.6
2022-07-29T15:07:49.165Z,394.3
2022-07-29T15:09:32.883Z,395.6
2022-07-29T15:11:16.569Z,397.3
2022-07-29T15:13:00.272Z,397.2
2022-07-29T15:14:43.977Z,396.6
2022-07-29T15:16:27.666Z,396.4
2022-07-29T15:18:11.356Z,396
2022-07-29T15:19:55.067Z,393.9
2022-07-29T15:21:38.784Z,395.5
2022-07-29T15:23:22.466Z,397.4
2022-07-29T15:25:06.165Z,400.8
2022-07-29T15:26:49.883Z,403.8
2022-07-29T15:28:33.580Z,405
2022-07-29T15:30:17.283Z,407.2
2022-07-29T15:32:00.974Z,402.2
2022-07-29T15:33:44.701Z,403.4
2022-07-29T15:35:28.385Z,405.5
2022-07-29T15:37:12.080Z,404.9
2022-07-29T15:38:55.803Z,404.3
2022-07-29T15:40:39.515Z,404.4
2022-07-29T15:42:23.195Z,402.5
2022-07-29T15:44:06.901Z,404.5
2022-07-29T15:45:50.620Z,407.4
2022-07-29T15:47:34.307Z,408.9
2022-07-29T15:49:18.008Z,408.9
2022-07-29T15:51:01.715Z,413.2
2022-07-29T15:52:45.409Z,410.3
2022-07-29T15:54:29.105Z,406.6
2022-07-29T15:56:12.827Z,404.8
2022-07-29T15:57:56.515Z,402.7
2022-07-29T15:59:40.230Z,403.8
2022-07-29T16:01:23.911Z,401.5
2022-07-29T16:03:07.634Z,401.7
2022-07-29T16:04:51.354Z,403.1
2022-07-29T16:06:35.021Z,402.5
2022-07-29T16:08:18.737Z,401.3
2022-07-29T16:10:02.418Z,403.2
2022-07-29T16:11:46.133Z,403.2
2022-07-29T16:13:29.839Z,404.7
2022-07-29T16:15:13.528Z,404.9
2022-07-29T16:16:57.223Z,405.2
2022-07-29T16:18:40.924Z,405.3
2022-07-29T16:20:24.649Z,402.1
2022-07-29T16:22:08.334Z,402.4
2022-07-29T16:23:52.024Z,399.8
2022-07-29T16:25:35.730Z,398.9
2022-07-29T16:27:19.442Z,399.3
2022-07-29T16:29:03.141Z,399.5
2022-07-29T16:30:46.849Z,397.5
2022-07-29T16:32:30.546Z,397.5
2022-07-29T16:34:14.267Z,398.4
2022-07-29T16:35:57.957Z,395.6
2022-07-29T16:37:41.654Z,394.2
2022-07-29T16:39:25.354Z,393.4
2022-07-29T16:41:09.051Z,392.4
2022-07-29T16:42:52.788Z,393.3
2022-07-29T16:44:36.475Z,393.1
2022-07-29T16:46:20.203Z,392.8
2022-07-29T16:48:03.899Z,392.6
2022-07-29T16:49:47.559Z,393.9
2022-07-29T16:51:31.345Z,393.3
2022-07-29T16:53:14.965Z,392.7
2022-07-29T16:54:58.667Z,392.8
2022-07-29T16:56:42.393Z,392.2
2022-07-29T16:58:26.104Z,395
2022-07-29T17:00:09.794Z,397.6
2022-07-29T17:01:53.475Z,400.4
2022-07-29T17:03:37.167Z,402.7
2022-07-29T17:05:20.893Z,404.6
2022-07-29T17:07:04.583Z,405.8
2022-07-29T17:08:48.262Z,406.6
2022-07-29T17:10:31.983Z,405.2
2022-07-29T17:12:15.676Z,407.1
2022-07-29T17:13:59.391Z,405.7
2022-07-29T17:15:43.101Z,406
2022-07-29T17:17:26.785Z,407.4
2022-07-29T17:19:10.488Z,407.2
2022-07-29T17:20:54.185Z,404.3
2022-07-29T17:22:37.902Z,400.1
2022-07-29T17:24:21.585Z,397.7
2022-07-29T17:26:05.327Z,398
2022-07-29T17:27:48.987Z,398.2
2022-07-29T17:29:32.716Z,399.4
2022-07-29T17:31:16.398Z,402
2022-07-29T17:33:00.109Z,404.6
2022-07-29T17:34:43.799Z,405.9
2022-07-29T17:36:27.516Z,404.3
2022-07-29T17:38:11.210Z,403.8
2022-07-29T17:39:54.910Z,406.5
2022-07-29T17:41:38.602Z,404.5
2022-07-29T17:43:22.286Z,403.8
2022-07-29T17:45:06.028Z,407.5
2022-07-29T17:46:49.708Z,410.4
2022-07-29T17:48:33.403Z,417.8
2022-07-29T17:50:17.110Z,432.9
2022-07-29T17:52:00.817Z,446.1
2022-07-29T17:53:44.527Z,455.1
2022-07-29T17:55:28.230Z,459
2022-07-29T17:57:11.922Z,463.2
2022-07-29T17:58:55.639Z,463.9
2022-07-29T18:00:39.321Z,462.5
2022-07-29T18:02:23.033Z,459.5
2022-07-29T18:04:06.748Z,457
2022-07-29T18:05:50.444Z,451.3
2022-07-29T18:07:34.135Z,443.9
2022-07-29T18:09:17.835Z,440.1
2022-07-29T18:11:01.548Z,437.6
2022-07-29T18:12:45.240Z,436
2022-07-29T18:14:28.931Z,436.1
2022-07-29T18:16:12.648Z,437.6
2022-07-29T18:17:56.347Z,438.9
2022-07-29T18:19:40.061Z,438.7
2022-07-29T18:21:23.746Z,438.3
2022-07-29T18:23:07.458Z,439.7
2022-07-29T18:24:51.169Z,440.8
2022-07-29T18:26:34.855Z,438.9
2022-07-29T18:28:18.566Z,440.3
2022-07-29T18:30:02.260Z,440.8
2022-07-29T18:31:45.981Z,441.6
2022-07-29T18:33:29.673Z,439.7
2022-07-29T18:35:13.391Z,437.7
2022-07-29T18:36:57.080Z,435.8
2022-07-29T18:38:40.782Z,437.4
2022-07-29T18:40:24.482Z,437.9
2022-07-29T18:42:08.183Z,438.1
2022-07-29T18:43:51.902Z,440.1
2022-07-29T18:45:35.608Z,440.5
2022-07-29T18:47:19.284Z,441.9
2022-07-29T18:49:02.993Z,438.8
2022-07-29T18:50:46.700Z,438
2022-07-29T18:52:30.390Z,438
2022-07-29T18:54:14.093Z,437.8
2022-07-29T18:55:57.808Z,438.4
2022-07-29T18:57:41.514Z,438.4
2022-07-29T18:59:25.213Z,437.6
2022-07-29T19:01:08.916Z,437.9
2022-07-29T19:02:52.630Z,436.5
2022-07-29T19:04:36.335Z,439.3
2022-07-29T19:06:20.028Z,439.6
2022-07-29T19:08:03.722Z,436.6
2022-07-29T19:09:47.439Z,437.4
2022-07-29T19:11:31.132Z,437.8
2022-07-29T19:13:14.825Z,438.7
2022-07-29T19:14:58.537Z,438.8
2022-07-29T19:16:42.235Z,439.9
2022-07-29T19:18:25.937Z,443.4
2022-07-29T19:20:09.617Z,445.3
2022-07-29T19:21:53.327Z,443.8
2022-07-29T19:23:37.031Z,440.9
2022-07-29T19:25:20.736Z,439.3
2022-07-29T19:27:04.441Z,438.5
2022-07-29T19:28:48.142Z,437.2
2022-07-29T19:30:31.856Z,434.1
2022-07-29T19:32:15.545Z,431.9
2022-07-29T19:33:59.254Z,434.9
2022-07-29T19:35:42.955Z,438.4
2022-07-29T19:37:26.684Z,455.6
2022-07-29T19:39:10.353Z,485.4
2022-07-29T19:40:54.071Z,506.2
2022-07-29T19:42:37.780Z,509.4
2022-07-29T19:44:21.473Z,510.3
2022-07-29T19:46:05.177Z,507.5
2022-07-29T19:47:48.875Z,504.7
2022-07-29T19:49:32.582Z,504
2022-07-29T19:51:16.293Z,502.6
2022-07-29T19:52:59.983Z,506.5
2022-07-29T19:54:43.691Z,513.8
2022-07-29T19:56:27.393Z,514.3
2022-07-29T19:58:11.105Z,513.4
2022-07-29T19:59:54.780Z,511.4
2022-07-29T20:01:38.507Z,514.1
2022-07-29T20:03:22.196Z,515.1
2022-07-29T20:05:05.902Z,518
2022-07-29T20:06:49.583Z,517.4
2022-07-29T20:08:33.545Z,521.7
2022-07-29T20:10:17.007Z,524.9
2022-07-29T20:12:00.711Z,533.7
2022-07-29T20:13:44.399Z,527.9
2022-07-29T20:15:28.115Z,498.1
2022-07-29T20:17:11.821Z,492.2
2022-07-29T20:18:55.515Z,484.6
2022-07-29T20:20:39.207Z,475.3
2022-07-29T20:22:22.906Z,468.5
2022-07-29T20:24:06.635Z,464
2022-07-29T20:25:50.320Z,455
2022-07-29T20:27:34.030Z,454.2
2022-07-29T20:29:17.739Z,453.6
2022-07-29T20:31:01.449Z,454.1
2022-07-29T20:32:45.165Z,452
2022-07-29T20:34:28.854Z,457.3
2022-07-29T20:36:12.550Z,458.3
2022-07-29T20:37:56.254Z,456.1
2022-07-29T20:39:39.933Z,455.9
2022-07-29T20:41:23.651Z,454.2
2022-07-29T20:43:07.352Z,453.1
2022-07-29T20:44:51.059Z,454.1
2022-07-29T20:46:34.750Z,452.5
2022-07-29T20:48:18.447Z,453.1
2022-07-29T20:50:02.159Z,454.3
2022-07-29T20:51:45.865Z,453.5
2022-07-29T20:53:29.556Z,454.7
2022-07-29T20:55:13.257Z,456.1
2022-07-29T20:56:56.976Z,456.9
2022-07-29T20:58:40.669Z,455.4
2022-07-29T21:00:24.338Z,452.1
2022-07-29T21:02:08.057Z,449.7
2022-07-29T21:03:51.759Z,448.7
2022-07-29T21:05:35.468Z,451.8
2022-07-29T21:07:19.146Z,451.1
2022-07-29T21:09:02.865Z,448.7
2022-07-29T21:10:46.546Z,446.9
2022-07-29T21:12:30.257Z,446.1
2022-07-29T21:14:13.965Z,444.8
2022-07-29T21:15:57.664Z,446.1
2022-07-29T21:17:41.366Z,444.2
2022-07-29T21:19:25.061Z,445.8
2022-07-29T21:21:08.757Z,448.6
2022-07-29T21:22:52.451Z,449.3
2022-07-29T21:24:36.162Z,448.5
2022-07-29T21:26:19.864Z,446.6
2022-07-29T21:28:03.544Z,444.7
2022-07-29T21:29:47.256Z,444.8
2022-07-29T21:31:30.965Z,443.3
2022-07-29T21:33:14.670Z,443.6
2022-07-29T21:34:58.361Z,442.8
2022-07-29T21:36:42.074Z,441.4
2022-07-29T21:38:25.776Z,440.7
2022-07-29T21:40:09.469Z,437.7
2022-07-29T21:41:53.430Z,437.2
2022-07-29T21:43:36.884Z,435.4
2022-07-29T21:45:20.588Z,434.7
2022-07-29T21:47:04.258Z,436.3
2022-07-29T21:48:47.969Z,438.8
2022-07-29T21:50:31.669Z,439.6
2022-07-29T21:52:15.384Z,443
2022-07-29T21:53:59.067Z,443.3
2022-07-29T21:55:42.765Z,440.1
2022-07-29T21:57:26.472Z,441.3
2022-07-29T21:59:10.188Z,442.3
2022-07-29T22:00:53.857Z,442.2
2022-07-29T22:02:37.560Z,442.3
2022-07-29T22:04:21.275Z,442.6
2022-07-29T22:06:04.971Z,445.6
2022-07-29T22:07:48.682Z,445.7
2022-07-29T22:09:32.368Z,442.8
2022-07-29T22:11:16.086Z,440.1
2022-07-29T22:12:59.790Z,440.2
2022-07-29T22:14:43.464Z,440.5
2022-07-29T22:16:27.166Z,440.3
2022-07-29T22:18:10.895Z,437.9
2022-07-29T22:19:54.567Z,439.9
2022-07-29T22:21:38.294Z,439.9
2022-07-29T22:23:21.989Z,437.9